Time;durP1;ratioP1;P1;durP2;ratioP2;P2;SDS_P1;SDS_P2;PMS_P1;PMS_P2;Temp;Humidity;BMP_temperature;BMP_pressure;BME280_temperature;BME280_humidity;BME280_pressure;Samples;Min_cycle;Max_cycle;Signal;HPM_P1;HPM_P2
2022/11/08 00:02:23;;;;;;;8.20;1.65;;;12.70;99.90;;;;;;5008841;28;20477;-82
2022/11/08 00:04:49;;;;;;;3.25;1.52;;;12.70;99.90;;;;;;4992154;28;20038;-80
2022/11/08 00:15:28;;;;;;;3.33;0.75;;;12.60;99.90;;;;;;5007264;28;20050;-81
2022/11/08 00:17:55;;;;;;;4.25;1.83;;;12.60;99.90;;;;;;5008291;28;20415;-81
2022/11/08 00:20:20;;;;;;;4.03;0.98;;;12.60;99.90;;;;;;5009414;28;20049;-81
2022/11/08 00:22:46;;;;;;;6.90;1.13;;;12.60;99.90;;;;;;5006218;28;20043;-81
2022/11/08 00:25:12;;;;;;;3.33;0.57;;;12.60;99.90;;;;;;5008458;28;20529;-81
2022/11/08 00:27:37;;;;;;;2.30;0.90;;;12.60;99.90;;;;;;4990219;28;20038;-81
2022/11/08 00:30:03;;;;;;;1.83;0.80;;;12.50;99.90;;;;;;4991043;28;20038;-84
2022/11/08 00:32:29;;;;;;;1.20;0.88;;;12.50;99.90;;;;;;5005237;28;20061;-81
2022/11/08 00:34:55;;;;;;;2.40;0.80;;;12.40;99.90;;;;;;5005954;28;20046;-81
2022/11/08 00:37:21;;;;;;;0.82;0.43;;;12.40;99.90;;;;;;4984397;28;20518;-81
2022/11/08 00:39:47;;;;;;;1.80;0.93;;;12.30;99.90;;;;;;5001116;28;20172;-81
2022/11/08 00:42:13;;;;;;;2.47;0.75;;;12.30;99.90;;;;;;4988942;28;20096;-80
2022/11/08 00:44:39;;;;;;;3.30;1.23;;;12.20;99.90;;;;;;5006329;28;20054;-81
2022/11/08 00:47:05;;;;;;;3.50;1.05;;;12.10;99.90;;;;;;5008284;28;20528;-82
2022/11/08 00:49:31;;;;;;;2.28;1.00;;;12.10;99.90;;;;;;4986033;28;20103;-82
2022/11/08 00:51:56;;;;;;;4.65;1.30;;;12.00;99.90;;;;;;5019442;28;20046;-81
2022/11/08 00:54:22;;;;;;;0.77;0.60;;;12.00;99.90;;;;;;5002364;28;20049;-84
2022/11/08 00:56:48;;;;;;;0.57;0.57;;;11.90;99.90;;;;;;4988472;28;20050;-82
2022/11/08 00:59:16;;;;;;;11.43;1.20;;;11.90;99.90;;;;;;5007518;28;20049;-81
2022/11/08 01:01:42;;;;;;;5.93;1.30;;;11.80;99.90;;;;;;5010225;28;20107;-84
2022/11/08 01:04:10;;;;;;;1.35;0.82;;;11.80;99.90;;;;;;5008730;28;20038;-80
2022/11/08 01:06:36;;;;;;;1.73;0.43;;;11.80;99.90;;;;;;4984010;28;20413;-81
2022/11/08 01:09:03;;;;;;;3.90;0.68;;;11.70;99.90;;;;;;5006707;28;20053;-80
2022/11/08 01:11:29;;;;;;;2.40;0.80;;;11.80;99.90;;;;;;5005729;28;20053;-80
2022/11/08 01:13:58;;;;;;;1.88;1.23;;;11.70;99.90;;;;;;4983947;28;20054;-82
2022/11/08 01:16:26;;;;;;;5.68;0.90;;;11.70;99.90;;;;;;5004394;28;20120;-84
2022/11/08 01:18:53;;;;;;;2.38;0.63;;;11.70;99.90;;;;;;4997048;28;20057;-82
2022/11/08 01:21:20;;;;;;;1.98;0.63;;;11.70;99.90;;;;;;5003506;28;20050;-82
2022/11/08 01:23:46;;;;;;;0.28;0.28;;;11.70;99.90;;;;;;5001815;28;20054;-84
2022/11/08 01:26:15;;;;;;;5.28;0.98;;;11.70;99.90;;;;;;5003785;28;20045;-82
2022/11/08 01:28:41;;;;;;;1.60;0.50;;;11.70;99.90;;;;;;5005026;28;20053;-82
2022/11/08 01:31:12;;;;;;;5.72;0.73;;;11.70;99.90;;;;;;5001889;28;20053;-82
2022/11/08 01:33:38;;;;;;;7.55;0.85;;;11.70;99.90;;;;;;4996360;28;20077;-83
2022/11/08 01:36:12;;;;;;;4.25;1.10;;;11.70;99.90;;;;;;4969042;28;20045;-81
2022/11/08 01:38:38;;;;;;;0.65;0.60;;;11.60;99.90;;;;;;5003277;28;20071;-83
2022/11/08 01:41:05;;;;;;;3.88;0.85;;;11.60;99.90;;;;;;5001873;28;20042;-83
2022/11/08 01:43:41;;;;;;;2.05;0.88;;;11.60;99.90;;;;;;4987506;28;20050;-82
2022/11/08 01:46:35;;;;;;;1.48;0.82;;;11.60;99.90;;;;;;5004777;28;20057;-82
2022/11/08 01:49:22;;;;;;;3.05;2.17;;;11.60;99.90;;;;;;5003959;28;20045;-81
2022/11/08 01:52:09;;;;;;;5.95;1.15;;;11.60;99.90;;;;;;5007344;28;20054;-82
2022/11/08 01:54:41;;;;;;;5.13;0.77;;;11.50;99.90;;;;;;4998544;28;20064;-82
2022/11/08 01:57:11;;;;;;;1.30;0.85;;;11.50;99.90;;;;;;4987704;28;20046;-81
2022/11/08 01:59:40;;;;;;;0.82;0.82;;;11.50;99.90;;;;;;5005050;28;20053;-82
2022/11/08 02:02:07;;;;;;;4.97;0.75;;;11.60;99.90;;;;;;5008687;28;20125;-85
2022/11/08 02:04:33;;;;;;;4.90;0.70;;;11.60;99.90;;;;;;4990575;28;20061;-80
2022/11/08 02:07:00;;;;;;;4.65;0.85;;;11.60;99.90;;;;;;4997394;28;20042;-81
2022/11/08 02:09:26;;;;;;;4.20;1.02;;;11.50;99.90;;;;;;5005267;28;20042;-82
2022/11/08 02:11:53;;;;;;;5.97;0.80;;;11.60;99.90;;;;;;5002089;28;20047;-81
2022/11/08 02:14:19;;;;;;;1.05;0.63;;;11.50;99.90;;;;;;5004016;28;20593;-80
2022/11/08 02:16:45;;;;;;;1.55;0.55;;;11.50;99.90;;;;;;5007668;28;20467;-82
2022/11/08 02:19:18;;;;;;;1.98;0.70;;;11.40;99.90;;;;;;5001070;28;20046;-84
2022/11/08 02:21:53;;;;;;;1.73;0.70;;;11.40;99.90;;;;;;5000026;28;20053;-82
2022/11/08 02:24:19;;;;;;;1.10;0.50;;;11.40;99.90;;;;;;4999457;28;20057;-82
2022/11/08 02:26:46;;;;;;;0.43;0.43;;;11.40;99.90;;;;;;5003450;28;20058;-82
2022/11/08 02:29:41;;;;;;;1.15;0.73;;;11.40;99.90;;;;;;5005476;28;20049;-82
2022/11/08 02:32:07;;;;;;;5.00;0.75;;;11.30;99.90;;;;;;4995274;28;20054;-81
2022/11/08 02:34:58;;;;;;;4.60;0.88;;;11.30;99.90;;;;;;5002052;28;20057;-81
2022/11/08 02:37:25;;;;;;;5.95;0.98;;;11.30;99.90;;;;;;4982737;28;20108;-80
2022/11/08 02:39:51;;;;;;;6.38;1.65;;;11.20;99.90;;;;;;4996630;28;20038;-81
2022/11/08 02:42:18;;;;;;;1.35;0.77;;;11.20;99.90;;;;;;4982350;28;20053;-81
2022/11/08 02:44:45;;;;;;;1.90;0.40;;;11.20;99.90;;;;;;5005733;28;20042;-82
2022/11/08 02:47:11;;;;;;;6.40;1.52;;;11.20;99.90;;;;;;4991893;28;20050;-81
2022/11/08 02:49:36;;;;;;;5.18;0.57;;;11.20;99.90;;;;;;5005475;28;20045;-81
2022/11/08 02:52:02;;;;;;;9.57;0.93;;;11.20;99.90;;;;;;5008190;28;20076;-82
2022/11/08 02:54:28;;;;;;;5.00;1.17;;;11.10;99.90;;;;;;5006772;28;20069;-85
2022/11/08 02:56:54;;;;;;;7.93;0.93;;;11.10;99.90;;;;;;5008818;28;20080;-81
2022/11/08 02:59:19;;;;;;;1.42;0.60;;;11.10;99.90;;;;;;4987261;28;20060;-82
2022/11/08 03:01:45;;;;;;;2.05;0.70;;;11.10;99.90;;;;;;5005571;28;20081;-83
2022/11/08 03:04:11;;;;;;;3.17;0.98;;;11.10;99.90;;;;;;5000166;28;20042;-80
2022/11/08 03:06:36;;;;;;;1.90;0.73;;;11.10;99.90;;;;;;4991225;28;20045;-80
2022/11/08 03:09:02;;;;;;;2.60;0.70;;;11.00;99.90;;;;;;5005490;28;20042;-80
2022/11/08 03:11:28;;;;;;;1.40;0.73;;;11.00;99.90;;;;;;5004021;28;20149;-82
2022/11/08 03:13:54;;;;;;;2.58;0.75;;;11.00;99.90;;;;;;5003991;28;20652;-81
2022/11/08 03:16:19;;;;;;;6.32;0.93;;;11.00;99.90;;;;;;5004749;28;20042;-82
2022/11/08 03:18:45;;;;;;;7.10;1.48;;;10.90;99.90;;;;;;4992886;28;20046;-81
2022/11/08 03:21:11;;;;;;;2.17;0.95;;;10.90;99.90;;;;;;4986061;28;20058;-81
2022/11/08 03:23:36;;;;;;;1.90;0.57;;;10.90;99.90;;;;;;5002552;28;20046;-82
2022/11/08 03:26:03;;;;;;;6.53;1.33;;;10.90;99.90;;;;;;5005680;28;21862;-85
2022/11/08 03:28:29;;;;;;;1.48;0.98;;;10.90;99.90;;;;;;5004424;28;20500;-80
2022/11/08 03:30:55;;;;;;;9.00;1.38;;;10.90;99.90;;;;;;5007703;28;20050;-81
2022/11/08 03:33:21;;;;;;;1.25;1.05;;;10.90;99.90;;;;;;4991732;28;20184;-80
2022/11/08 03:35:48;;;;;;;1.70;1.27;;;10.80;99.90;;;;;;4989131;28;20042;-81
2022/11/08 03:38:15;;;;;;;0.98;0.75;;;10.80;99.90;;;;;;5007515;28;20413;-81
2022/11/08 03:40:41;;;;;;;1.95;1.00;;;10.80;99.90;;;;;;5004642;28;20070;-81
2022/11/08 03:43:07;;;;;;;2.97;1.35;;;10.70;99.90;;;;;;5005054;28;20123;-82
2022/11/08 03:45:32;;;;;;;3.42;0.85;;;10.80;99.90;;;;;;5005523;28;20136;-81
2022/11/08 03:47:58;;;;;;;2.58;0.90;;;10.70;99.90;;;;;;5007119;28;20054;-82
2022/11/08 03:50:24;;;;;;;5.15;1.08;;;10.70;99.90;;;;;;4988071;28;20038;-81
2022/11/08 03:52:51;;;;;;;2.83;0.85;;;10.70;99.90;;;;;;5006557;28;20053;-80
2022/11/08 03:55:19;;;;;;;1.55;0.95;;;10.70;99.90;;;;;;5004177;28;20049;-82
2022/11/08 03:57:46;;;;;;;11.45;1.58;;;10.70;99.90;;;;;;5006944;28;20084;-82
2022/11/08 04:00:14;;;;;;;8.23;1.20;;;10.80;99.90;;;;;;5023381;28;20053;-80
2022/11/08 04:02:40;;;;;;;4.70;0.80;;;10.70;99.90;;;;;;5006405;28;20052;-81
2022/11/08 04:05:08;;;;;;;1.52;0.95;;;10.70;99.90;;;;;;5003795;28;20473;-81
2022/11/08 04:07:35;;;;;;;4.05;0.60;;;10.80;99.90;;;;;;5007599;28;20050;-84
2022/11/08 04:10:01;;;;;;;0.68;0.65;;;10.80;99.90;;;;;;5002887;28;20064;-81
2022/11/08 04:15:15;;;;;;;4.85;0.85;;;10.90;99.90;;;;;;5004158;28;20053;-81
2022/11/08 04:23:16;;;;;;;2.97;0.63;;;10.80;99.90;;;;;;5006541;28;20046;-81
2022/11/08 04:25:42;;;;;;;2.67;1.08;;;10.80;99.90;;;;;;5007813;28;20041;-81
2022/11/08 04:28:08;;;;;;;0.90;0.63;;;10.80;99.90;;;;;;4988991;28;20057;-81
2022/11/08 04:30:34;;;;;;;1.42;0.57;;;10.80;99.90;;;;;;5003342;28;20053;-82
2022/11/08 04:33:02;;;;;;;1.95;1.40;;;10.70;99.90;;;;;;5011525;28;20042;-80
2022/11/08 04:35:29;;;;;;;1.45;1.13;;;10.70;99.90;;;;;;5010773;28;20061;-82
2022/11/08 04:38:00;;;;;;;2.50;1.40;;;10.70;99.90;;;;;;4980829;28;20081;-81
2022/11/08 04:40:26;;;;;;;2.92;0.45;;;10.70;99.90;;;;;;5002886;28;20125;-81
2022/11/08 04:42:52;;;;;;;4.03;0.88;;;10.70;99.90;;;;;;5006092;28;20057;-80
2022/11/08 04:45:18;;;;;;;8.15;0.90;;;10.70;99.90;;;;;;5005118;28;20104;-81
2022/11/08 04:47:48;;;;;;;5.35;1.25;;;10.70;99.90;;;;;;5006241;28;20065;-80
2022/11/08 04:50:14;;;;;;;1.55;0.38;;;10.70;99.90;;;;;;5012487;28;20050;-81
2022/11/08 04:52:40;;;;;;;3.42;1.10;;;10.70;99.90;;;;;;5002064;28;20076;-81
2022/11/08 04:55:07;;;;;;;2.60;0.63;;;10.70;99.90;;;;;;4987207;28;20459;-82
2022/11/08 04:57:33;;;;;;;7.22;1.08;;;10.70;99.90;;;;;;5004089;28;20463;-85
2022/11/08 04:59:58;;;;;;;3.22;0.95;;;10.70;99.90;;;;;;5005563;28;20056;-82
2022/11/08 05:02:24;;;;;;;1.15;0.70;;;10.70;99.90;;;;;;5004803;28;20046;-82
2022/11/08 05:04:49;;;;;;;2.63;1.33;;;10.70;99.90;;;;;;5001069;28;20081;-82
2022/11/08 05:07:15;;;;;;;1.25;0.75;;;10.70;99.90;;;;;;5009342;28;20042;-82
2022/11/08 05:09:41;;;;;;;4.18;1.10;;;10.70;99.90;;;;;;4996858;28;20058;-85
2022/11/08 05:12:07;;;;;;;8.70;1.17;;;10.70;99.90;;;;;;4995295;28;20465;-83
2022/11/08 05:14:32;;;;;;;5.82;0.95;;;10.70;99.90;;;;;;5004486;28;20129;-81
2022/11/08 05:16:58;;;;;;;3.28;0.70;;;10.70;99.90;;;;;;5010675;28;20125;-82
2022/11/08 05:24:53;;;;;;;2.75;0.80;;;10.60;99.90;;;;;;5009632;28;20477;-83
2022/11/08 05:27:19;;;;;;;9.30;0.90;;;10.60;99.90;;;;;;4985119;28;20512;-81
2022/11/08 05:29:44;;;;;;;1.13;0.63;;;10.60;99.90;;;;;;5005053;28;20053;-82
2022/11/08 05:32:12;;;;;;;0.55;0.35;;;10.60;99.90;;;;;;5001769;28;20054;-85
2022/11/08 05:34:38;;;;;;;1.75;0.73;;;10.60;99.90;;;;;;4988335;28;20049;-83
2022/11/08 05:37:04;;;;;;;0.68;0.40;;;10.60;99.90;;;;;;5003313;28;20050;-83
2022/11/08 05:39:29;;;;;;;1.27;0.60;;;10.60;99.90;;;;;;4974361;28;20052;-81
2022/11/08 05:41:55;;;;;;;4.95;1.05;;;10.60;99.90;;;;;;5007557;28;20053;-81
2022/11/08 05:44:21;;;;;;;11.52;0.98;;;10.60;99.90;;;;;;5004759;28;20579;-81
2022/11/08 05:46:46;;;;;;;0.35;0.35;;;10.60;99.90;;;;;;5005084;28;20417;-83
2022/11/08 05:49:12;;;;;;;4.00;0.70;;;10.70;99.90;;;;;;4986922;28;20077;-83
2022/11/08 05:51:37;;;;;;;2.20;1.30;;;10.70;99.90;;;;;;4999536;28;20046;-84
2022/11/08 05:54:03;;;;;;;1.50;0.88;;;10.70;99.90;;;;;;5000101;28;20093;-81
2022/11/08 05:56:29;;;;;;;1.13;0.70;;;10.70;99.90;;;;;;4986752;28;20080;-82
2022/11/08 05:58:55;;;;;;;6.03;1.13;;;10.80;99.90;;;;;;4999245;28;20140;-81
2022/11/08 06:01:21;;;;;;;4.85;0.77;;;10.80;99.90;;;;;;5004309;28;20042;-82
2022/11/08 06:03:47;;;;;;;1.10;0.68;;;10.80;99.90;;;;;;5008765;28;20076;-81
2022/11/08 06:06:15;;;;;;;2.20;1.08;;;10.80;99.90;;;;;;4999970;28;20472;-81
2022/11/08 06:08:42;;;;;;;2.17;1.20;;;10.80;99.90;;;;;;4989979;28;20064;-82
2022/11/08 06:11:13;;;;;;;1.30;0.40;;;10.70;99.90;;;;;;4998292;28;20181;-83
2022/11/08 06:13:39;;;;;;;4.32;0.60;;;10.70;99.90;;;;;;4995382;28;20085;-81
2022/11/08 06:16:07;;;;;;;2.03;1.25;;;10.70;99.90;;;;;;4998943;28;20124;-82
2022/11/08 06:18:33;;;;;;;2.17;0.65;;;10.70;99.90;;;;;;5000533;28;20049;-84
2022/11/08 06:21:00;;;;;;;1.52;1.08;;;10.70;99.90;;;;;;4985561;28;20137;-83
2022/11/08 06:23:27;;;;;;;1.15;0.57;;;10.60;99.90;;;;;;5006745;28;20050;-81
2022/11/08 06:25:52;;;;;;;6.95;1.20;;;10.70;99.90;;;;;;4993884;28;20040;-82
2022/11/08 06:28:18;;;;;;;2.00;0.60;;;10.70;99.90;;;;;;5009581;28;20042;-81
2022/11/08 06:30:44;;;;;;;3.28;0.82;;;10.70;99.90;;;;;;4997569;28;20050;-82
2022/11/08 06:33:10;;;;;;;2.42;0.80;;;10.70;99.90;;;;;;5001382;28;20046;-82
2022/11/08 06:35:36;;;;;;;5.43;0.82;;;10.80;99.90;;;;;;5007055;28;20056;-81
2022/11/08 06:38:02;;;;;;;1.52;1.00;;;10.80;99.90;;;;;;5006121;28;20046;-81
2022/11/08 06:40:28;;;;;;;1.20;0.77;;;10.90;99.90;;;;;;5001908;28;20174;-81
2022/11/08 06:42:53;;;;;;;4.45;1.40;;;10.90;99.90;;;;;;5001565;28;20073;-81
2022/11/08 06:45:19;;;;;;;1.92;0.95;;;10.90;99.90;;;;;;5004387;28;20061;-81
2022/11/08 06:47:45;;;;;;;3.13;1.45;;;10.80;99.90;;;;;;5001375;28;20137;-84
2022/11/08 06:50:11;;;;;;;1.02;0.40;;;10.80;99.90;;;;;;5006407;28;20060;-81
2022/11/08 06:52:37;;;;;;;1.95;0.95;;;10.90;99.90;;;;;;5013230;28;20041;-81
2022/11/08 06:55:03;;;;;;;2.63;1.08;;;10.90;99.90;;;;;;4999906;28;20068;-85
2022/11/08 06:57:28;;;;;;;6.35;1.27;;;10.80;99.90;;;;;;5015106;28;20571;-84
2022/11/08 06:59:57;;;;;;;5.50;1.20;;;10.90;99.90;;;;;;5031416;28;20341;-81
2022/11/08 07:02:23;;;;;;;1.60;1.15;;;10.80;99.90;;;;;;4982939;28;20125;-82
2022/11/08 07:04:49;;;;;;;4.13;0.85;;;10.80;99.90;;;;;;5011642;28;20046;-83
2022/11/08 07:07:14;;;;;;;7.88;1.48;;;10.80;99.90;;;;;;5022009;28;20488;-82
2022/11/08 07:09:40;;;;;;;6.63;1.42;;;10.90;99.90;;;;;;5024242;28;20514;-83
2022/11/08 07:12:06;;;;;;;6.20;1.75;;;10.80;99.90;;;;;;5004461;28;20050;-83
2022/11/08 07:14:32;;;;;;;4.55;1.08;;;10.80;99.90;;;;;;4979409;28;20045;-81
2022/11/08 07:16:58;;;;;;;2.88;2.00;;;10.90;99.90;;;;;;4996783;28;20042;-83
2022/11/08 07:19:23;;;;;;;5.82;1.42;;;10.80;99.90;;;;;;5022900;28;20103;-82
2022/11/08 07:21:49;;;;;;;1.98;0.82;;;10.90;99.90;;;;;;5014782;28;20128;-82
2022/11/08 07:24:15;;;;;;;3.33;1.13;;;10.80;99.90;;;;;;5010299;28;20038;-83
2022/11/08 07:26:40;;;;;;;2.38;0.80;;;10.80;99.90;;;;;;5004568;28;20048;-82
2022/11/08 07:29:06;;;;;;;7.32;1.63;;;10.90;99.90;;;;;;5014907;28;20424;-82
2022/11/08 07:31:32;;;;;;;4.78;1.02;;;10.80;99.90;;;;;;5015689;28;20129;-81
2022/11/08 07:33:57;;;;;;;3.38;1.35;;;10.80;99.90;;;;;;5015553;28;20072;-82
2022/11/08 07:36:23;;;;;;;2.45;0.88;;;10.90;99.90;;;;;;5013960;28;20034;-82
2022/11/08 07:38:50;;;;;;;3.05;1.33;;;10.90;99.90;;;;;;4998764;28;20041;-81
2022/11/08 07:41:16;;;;;;;1.67;0.80;;;10.90;99.90;;;;;;5033330;28;20053;-81
2022/11/08 07:43:41;;;;;;;5.85;2.03;;;10.90;99.90;;;;;;4997112;28;20385;-84
2022/11/08 07:46:07;;;;;;;1.60;1.05;;;11.00;99.90;;;;;;4979014;28;20056;-81
2022/11/08 07:48:34;;;;;;;1.55;0.82;;;11.00;99.90;;;;;;4998656;28;20096;-84
2022/11/08 07:51:00;;;;;;;2.10;1.02;;;11.10;99.90;;;;;;4987771;28;20046;-81
2022/11/08 07:53:25;;;;;;;2.70;1.17;;;11.10;99.90;;;;;;4994202;28;20104;-82
2022/11/08 07:55:52;;;;;;;1.25;0.90;;;11.10;99.90;;;;;;5003643;28;20041;-82
2022/11/08 07:58:17;;;;;;;0.93;0.93;;;11.20;99.90;;;;;;5005757;28;20053;-81
2022/11/08 08:00:48;;;;;;;7.10;0.65;;;11.30;99.90;;;;;;5015668;28;20057;-82
2022/11/08 08:03:15;;;;;;;0.68;0.47;;;11.40;99.90;;;;;;4997166;28;20132;-80
2022/11/08 08:05:43;;;;;;;0.60;0.40;;;11.40;99.90;;;;;;5013340;28;20050;-81
2022/11/08 08:08:11;;;;;;;1.42;0.55;;;11.50;99.90;;;;;;5008747;28;20455;-81
2022/11/08 08:10:37;;;;;;;1.25;0.98;;;11.60;99.90;;;;;;5010558;28;20042;-81
2022/11/08 08:13:03;;;;;;;1.88;0.70;;;11.70;99.90;;;;;;4998261;28;20038;-83
2022/11/08 08:15:29;;;;;;;3.30;0.52;;;11.70;99.90;;;;;;5013365;28;20042;-82
2022/11/08 08:17:57;;;;;;;3.50;1.20;;;11.80;99.90;;;;;;5013162;28;20369;-81
2022/11/08 08:20:23;;;;;;;6.00;1.30;;;11.90;99.90;;;;;;5011991;28;20520;-82
2022/11/08 08:22:50;;;;;;;1.33;0.88;;;11.90;99.90;;;;;;4982455;28;20038;-81
2022/11/08 08:25:17;;;;;;;2.80;1.17;;;11.90;99.90;;;;;;5000301;28;20103;-84
2022/11/08 08:27:50;;;;;;;0.90;0.68;;;12.00;99.90;;;;;;5002794;28;20106;-80
2022/11/08 08:30:17;;;;;;;0.60;0.57;;;12.00;99.90;;;;;;5013254;28;20049;-81
2022/11/08 08:32:43;;;;;;;0.50;0.50;;;12.00;99.90;;;;;;4996314;28;20046;-82
2022/11/08 08:35:09;;;;;;;0.75;0.68;;;12.10;99.90;;;;;;5012953;28;20398;-82
2022/11/08 08:37:35;;;;;;;5.05;0.73;;;12.10;99.90;;;;;;5014316;28;20377;-83
2022/11/08 08:40:00;;;;;;;0.88;0.40;;;12.20;99.90;;;;;;5013214;28;20048;-82
2022/11/08 08:42:26;;;;;;;2.10;0.80;;;12.20;99.90;;;;;;4996757;28;20054;-82
2022/11/08 08:44:54;;;;;;;1.23;0.70;;;12.20;99.90;;;;;;5013044;28;20104;-82
2022/11/08 08:47:20;;;;;;;1.25;0.50;;;12.20;99.90;;;;;;4995669;28;20141;-84
2022/11/08 08:49:46;;;;;;;2.83;0.70;;;12.30;99.90;;;;;;4977396;28;20137;-82
2022/11/08 08:52:13;;;;;;;3.15;0.80;;;12.30;99.90;;;;;;4993327;28;20046;-82
2022/11/08 08:54:38;;;;;;;2.65;0.98;;;12.30;99.90;;;;;;5012639;28;20054;-80
2022/11/08 08:57:04;;;;;;;0.85;0.50;;;12.40;99.90;;;;;;4996097;28;20125;-82
2022/11/08 08:59:30;;;;;;;5.13;0.82;;;12.40;99.90;;;;;;5001261;28;20041;-81
2022/11/08 09:01:55;;;;;;;1.02;0.80;;;12.50;99.90;;;;;;5032684;28;20045;-82
2022/11/08 09:04:21;;;;;;;5.32;1.10;;;12.60;99.90;;;;;;5016065;28;20038;-84
2022/11/08 09:06:53;;;;;;;4.45;0.68;;;12.80;99.90;;;;;;4999051;28;20048;-84
2022/11/08 09:09:20;;;;;;;;;;;13.00;99.90;;;;;;4995136;28;20042;-83
2022/11/08 09:11:46;;;;;;;1.30;0.80;;;13.10;99.90;;;;;;4994371;28;19996;-81
2022/11/08 09:14:12;;;;;;;3.50;0.52;;;13.20;99.90;;;;;;5011855;28;20144;-83
2022/11/08 09:16:37;;;;;;;4.95;0.88;;;13.30;99.90;;;;;;4995930;28;20434;-82
2022/11/08 09:19:05;;;;;;;1.88;0.82;;;13.40;99.90;;;;;;5013144;28;20161;-81
2022/11/08 09:21:31;;;;;;;4.20;0.70;;;13.50;99.90;;;;;;5017928;28;20120;-82
2022/11/08 09:23:57;;;;;;;2.88;0.90;;;13.60;99.90;;;;;;5012123;28;20045;-83
2022/11/08 09:26:23;;;;;;;2.20;0.60;;;13.70;99.90;;;;;;4997164;28;20098;-82
2022/11/08 09:28:50;;;;;;;2.30;0.70;;;13.80;99.90;;;;;;5015719;28;20049;-83
2022/11/08 09:31:15;;;;;;;1.17;0.60;;;14.00;99.90;;;;;;4998670;28;20109;-83
2022/11/08 09:33:41;;;;;;;3.30;0.80;;;14.10;99.90;;;;;;5021795;28;20058;-81
2022/11/08 09:36:10;;;;;;;0.95;0.70;;;14.10;99.90;;;;;;5011268;28;20081;-83
2022/11/08 09:38:36;;;;;;;1.40;0.60;;;14.10;99.90;;;;;;5014725;28;20045;-82
2022/11/08 09:41:07;;;;;;;2.25;0.82;;;14.10;99.90;;;;;;5012762;28;20052;-82
2022/11/08 09:43:33;;;;;;;1.50;0.50;;;14.10;99.90;;;;;;5007786;28;20049;-82
2022/11/08 09:45:59;;;;;;;0.85;0.65;;;14.00;99.90;;;;;;4992016;28;20050;-83
2022/11/08 09:48:33;;;;;;;1.55;0.90;;;14.00;99.90;;;;;;4986908;28;20077;-82
2022/11/08 09:51:04;;;;;;;1.70;1.00;;;13.90;99.90;;;;;;5011625;28;20096;-81
2022/11/08 09:53:57;;;;;;;1.63;0.93;;;13.90;99.90;;;;;;5012885;28;20041;-81
2022/11/08 09:56:33;;;;;;;2.10;1.25;;;13.90;99.90;;;;;;4992461;28;20124;-82
2022/11/08 09:59:26;;;;;;;0.55;0.47;;;13.90;99.90;;;;;;4995176;28;20049;-81
2022/11/08 10:01:51;;;;;;;1.27;1.00;;;13.90;99.90;;;;;;5011145;28;20132;-82
2022/11/08 10:04:22;;;;;;;1.55;0.95;;;13.90;99.90;;;;;;5011383;28;20196;-82
2022/11/08 10:07:05;;;;;;;4.60;0.85;;;14.00;99.90;;;;;;4995373;28;20458;-83
2022/11/08 10:09:52;;;;;;;0.80;0.60;;;14.00;99.90;;;;;;5005428;28;20041;-82
2022/11/08 10:12:46;;;;;;;4.07;0.70;;;14.00;99.90;;;;;;5008516;28;20049;-82
2022/11/08 10:15:29;;;;;;;2.90;0.70;;;14.00;99.90;;;;;;4992099;28;20113;-80
2022/11/08 10:18:03;;;;;;;3.38;1.25;;;14.00;99.90;;;;;;4991887;28;20046;-81
2022/11/08 10:21:00;;;;;;;2.75;0.85;;;14.00;99.90;;;;;;4997159;28;20428;-82
2022/11/08 10:23:47;;;;;;;0.98;0.75;;;14.00;99.90;;;;;;4995187;28;20145;-82
2022/11/08 10:26:19;;;;;;;0.50;0.47;;;14.00;99.90;;;;;;5011368;28;20046;-82
2022/11/08 10:28:55;;;;;;;0.77;0.50;;;14.10;99.90;;;;;;5011557;28;20046;-82
2022/11/08 10:31:21;;;;;;;1.15;0.77;;;14.10;99.90;;;;;;5011507;28;20143;-82
2022/11/08 10:33:49;;;;;;;3.10;0.88;;;14.10;99.90;;;;;;5004196;28;20080;-82
2022/11/08 10:36:19;;;;;;;5.07;0.73;;;14.10;99.90;;;;;;5013595;28;20113;-82
2022/11/08 10:39:07;;;;;;;1.45;0.82;;;14.10;99.90;;;;;;5014909;28;20045;-83
2022/11/08 10:41:46;;;;;;;0.65;0.65;;;14.00;99.90;;;;;;5028966;28;20622;-82
2022/11/08 10:44:20;;;;;;;3.03;0.80;;;13.90;99.90;;;;;;5029468;28;20480;-82
2022/11/08 10:46:49;;;;;;;1.40;0.80;;;13.90;99.90;;;;;;4997834;28;20073;-83
2022/11/08 10:49:18;;;;;;;1.45;0.60;;;13.80;99.90;;;;;;5009565;28;20037;-82
2022/11/08 10:51:46;;;;;;;3.65;0.88;;;13.80;99.90;;;;;;5010446;28;20121;-81
2022/11/08 10:54:41;;;;;;;0.90;0.50;;;13.80;99.90;;;;;;5009265;28;20521;-82
2022/11/08 10:57:08;;;;;;;1.42;0.75;;;13.80;99.90;;;;;;5010235;28;20046;-81
2022/11/08 10:59:34;;;;;;;2.53;0.68;;;13.70;99.90;;;;;;4984972;28;20038;-82
2022/11/08 11:02:00;;;;;;;1.45;0.60;;;13.70;99.90;;;;;;5001820;28;20065;-79
2022/11/08 11:04:33;;;;;;;2.20;0.50;;;13.70;99.90;;;;;;5016990;28;20034;-81
2022/11/08 11:07:31;;;;;;;4.50;0.70;;;13.80;99.90;;;;;;4981882;28;20046;-82
2022/11/08 11:10:13;;;;;;;2.00;0.93;;;13.80;99.90;;;;;;5010604;28;20100;-80
2022/11/08 11:12:39;;;;;;;1.23;0.77;;;13.90;99.90;;;;;;5014207;28;20100;-80
2022/11/08 11:15:13;;;;;;;4.43;0.82;;;14.00;99.90;;;;;;4997812;28;20049;-81
2022/11/08 11:17:39;;;;;;;1.55;0.73;;;14.10;99.90;;;;;;5014310;28;20050;-82
2022/11/08 11:20:17;;;;;;;0.63;0.63;;;14.20;99.90;;;;;;5014483;28;20549;-80
2022/11/08 11:22:44;;;;;;;0.77;0.50;;;14.30;99.90;;;;;;4999312;28;20044;-80
2022/11/08 11:25:17;;;;;;;2.13;0.93;;;14.40;99.90;;;;;;5014521;28;20037;-81
2022/11/08 11:27:50;;;;;;;2.40;0.68;;;14.50;99.90;;;;;;5014073;28;20072;-81
2022/11/08 11:30:24;;;;;;;0.45;0.45;;;14.50;99.90;;;;;;5014513;28;20042;-81
2022/11/08 11:33:25;;;;;;;1.33;0.80;;;14.60;99.90;;;;;;4997747;28;20045;-81
2022/11/08 11:36:08;;;;;;;1.77;0.70;;;14.60;99.90;;;;;;5011640;28;20049;-82
2022/11/08 11:38:56;;;;;;;1.50;0.93;;;14.60;99.90;;;;;;5014662;28;20144;-81
2022/11/08 11:41:38;;;;;;;3.50;0.93;;;14.60;99.90;;;;;;4998029;28;20050;-81
2022/11/08 11:44:03;;;;;;;2.45;0.50;;;14.70;99.90;;;;;;5011181;28;20049;-83
2022/11/08 11:46:42;;;;;;;0.60;0.60;;;14.80;99.90;;;;;;5013602;28;20046;-82
2022/11/08 11:49:15;;;;;;;0.55;0.50;;;14.80;99.90;;;;;;5014145;28;20136;-81
2022/11/08 11:51:41;;;;;;;1.48;0.93;;;14.80;99.90;;;;;;5013901;28;20050;-81
2022/11/08 11:54:12;;;;;;;2.80;0.90;;;14.80;99.90;;;;;;4997749;28;20433;-81
2022/11/08 11:56:59;;;;;;;0.47;0.47;;;14.80;99.90;;;;;;5014664;28;20073;-85
2022/11/08 11:59:42;;;;;;;1.02;0.70;;;14.70;99.90;;;;;;5001467;28;20044;-85
2022/11/08 12:02:41;;;;;;;6.00;0.80;;;14.70;99.90;;;;;;5015723;28;20038;-85
2022/11/08 12:05:16;;;;;;;3.03;0.77;;;14.70;99.90;;;;;;4993858;28;20428;-84
2022/11/08 12:08:19;;;;;;;4.00;1.00;;;14.70;99.90;;;;;;5017623;28;20095;-82
2022/11/08 12:10:59;;;;;;;0.73;0.38;;;14.70;99.90;;;;;;5016211;28;20034;-82
2022/11/08 12:13:56;;;;;;;2.25;0.70;;;14.60;99.90;;;;;;5013844;28;20089;-82
2022/11/08 12:16:43;;;;;;;2.22;0.50;;;14.60;99.90;;;;;;5012950;28;20092;-81
2022/11/08 12:19:33;;;;;;;2.08;0.70;;;14.60;99.90;;;;;;5013359;28;20358;-81
2022/11/08 12:22:07;;;;;;;2.95;0.93;;;14.60;99.90;;;;;;5012937;28;20061;-81
2022/11/08 12:24:57;;;;;;;1.27;0.70;;;14.60;99.90;;;;;;4997229;28;20372;-82
2022/11/08 12:27:47;;;;;;;2.42;0.65;;;14.60;99.90;;;;;;5012842;28;20085;-81
2022/11/08 12:30:41;;;;;;;2.13;0.45;;;14.50;99.90;;;;;;4996866;28;20075;-80
2022/11/08 12:33:28;;;;;;;3.90;0.88;;;14.50;99.90;;;;;;5013260;28;20101;-82
2022/11/08 12:36:21;;;;;;;0.60;0.60;;;14.40;99.90;;;;;;5012393;28;20041;-81
2022/11/08 12:39:12;;;;;;;0.75;0.68;;;14.40;99.90;;;;;;5013048;28;20376;-81
2022/11/08 12:42:13;;;;;;;0.20;0.20;;;14.30;99.90;;;;;;5130583;27;20722;-79
2022/11/08 12:44:54;;;;;;;0.63;0.50;;;14.20;99.90;;;;;;5075574;28;20112;-80
2022/11/08 12:47:43;;;;;;;3.40;1.00;;;14.20;99.90;;;;;;5088326;28;20040;-78
2022/11/08 12:50:16;;;;;;;2.30;0.73;;;14.20;99.90;;;;;;5105630;28;20053;-81
2022/11/08 12:53:19;;;;;;;1.63;0.60;;;14.20;99.90;;;;;;5074083;28;20052;-81
2022/11/08 12:55:47;;;;;;;2.65;0.98;;;14.20;99.90;;;;;;5073304;28;20371;-80
2022/11/08 12:58:30;;;;;;;4.10;1.10;;;14.20;99.90;;;;;;5091896;28;20073;-78
2022/11/08 13:01:01;;;;;;;1.48;0.93;;;14.20;99.90;;;;;;5103907;28;20036;-80
2022/11/08 13:03:39;;;;;;;1.10;0.52;;;14.30;99.90;;;;;;5092008;28;20044;-80
2022/11/08 13:06:13;;;;;;;1.70;0.45;;;14.40;99.90;;;;;;5092108;28;20040;-79
2022/11/08 13:09:05;;;;;;;3.13;0.95;;;14.40;99.90;;;;;;5084378;28;20047;-79
2022/11/08 13:11:46;;;;;;;1.85;0.82;;;14.40;99.90;;;;;;5083564;28;20123;-80
2022/11/08 13:14:15;;;;;;;0.68;0.57;;;14.50;99.90;;;;;;5116124;28;20185;-81
2022/11/08 13:16:43;;;;;;;4.88;0.90;;;14.50;99.90;;;;;;5082319;28;20048;-79
2022/11/08 13:19:48;;;;;;;7.93;1.27;;;14.60;99.90;;;;;;5117339;28;20052;-79
2022/11/08 13:22:32;;;;;;;0.98;0.55;;;14.60;99.90;;;;;;5096930;28;20374;-79
2022/11/08 13:25:00;;;;;;;1.65;0.73;;;14.70;99.90;;;;;;5106913;28;20040;-80
2022/11/08 13:27:40;;;;;;;0.77;0.52;;;14.60;99.90;;;;;;5054894;28;20131;-79